createdAt,value
2022-08-24T00:00:35.542Z,17.50
2022-08-24T00:03:02.941Z,17.50
2022-08-24T00:05:30.006Z,17.40
2022-08-24T00:07:56.944Z,17.40
2022-08-24T00:10:24.206Z,17.40
2022-08-24T00:12:51.051Z,17.30
2022-08-24T00:15:17.957Z,17.20
2022-08-24T00:17:44.982Z,17.20
2022-08-24T00:20:13.312Z,17.20
2022-08-24T00:22:41.189Z,17.10
2022-08-24T00:25:10.791Z,17.10
2022-08-24T00:27:39.097Z,17.10
2022-08-24T00:30:15.348Z,17.10
2022-08-24T00:32:43.157Z,17.10
2022-08-24T00:35:11.964Z,17.10
2022-08-24T00:37:39.582Z,17.10
2022-08-24T00:40:11.596Z,17.00
2022-08-24T00:42:39.670Z,17.00
2022-08-24T00:45:09.049Z,17.00
2022-08-24T00:47:48.259Z,17.00
2022-08-24T00:50:26.741Z,17.00
2022-08-24T00:52:58.005Z,17.00
2022-08-24T00:55:33.741Z,17.00
2022-08-24T00:58:04.748Z,16.90
2022-08-24T01:00:39.704Z,16.90
2022-08-24T01:03:07.966Z,16.90
2022-08-24T01:05:36.973Z,16.90
2022-08-24T01:08:06.121Z,16.90
2022-08-24T01:10:38.513Z,16.90
2022-08-24T01:13:07.830Z,16.90
2022-08-24T01:15:39.743Z,16.80
2022-08-24T01:18:27.734Z,16.70
2022-08-24T01:21:06.868Z,16.60
2022-08-24T01:23:43.953Z,16.40
2022-08-24T01:26:17.500Z,16.30
2022-08-24T01:28:47.039Z,16.30
2022-08-24T01:31:14.115Z,16.20
2022-08-24T01:33:40.783Z,16.20
2022-08-24T01:36:18.263Z,16.20
2022-08-24T01:38:46.978Z,16.30
2022-08-24T01:41:14.165Z,16.30
2022-08-24T01:43:41.442Z,16.30
2022-08-24T01:46:08.746Z,16.30
2022-08-24T01:48:35.562Z,16.30
2022-08-24T01:51:02.204Z,16.30
2022-08-24T01:53:28.972Z,16.30
2022-08-24T01:55:55.811Z,16.30
2022-08-24T01:58:22.634Z,16.40
2022-08-24T02:00:49.315Z,16.40
2022-08-24T02:03:16.214Z,16.40
2022-08-24T02:05:48.854Z,16.30
2022-08-24T02:08:15.728Z,16.20
2022-08-24T02:10:45.694Z,16.20
2022-08-24T02:13:22.965Z,16.20
2022-08-24T02:15:50.471Z,16.20
2022-08-24T02:18:17.183Z,16.20
2022-08-24T02:20:45.178Z,16.20
2022-08-24T02:23:12.307Z,16.10
2022-08-24T02:25:38.950Z,16.20
2022-08-24T02:28:05.929Z,16.10
2022-08-24T02:30:33.102Z,16.10
2022-08-24T02:33:00.718Z,16.10
2022-08-24T02:35:29.728Z,16.00
2022-08-24T02:37:56.990Z,16.00
2022-08-24T02:40:24.386Z,15.90
2022-08-24T02:42:51.835Z,15.90
2022-08-24T02:45:19.566Z,15.80
2022-08-24T02:47:46.813Z,15.80
2022-08-24T02:50:16.770Z,15.80
2022-08-24T02:52:44.240Z,15.70
2022-08-24T02:55:15.347Z,15.60
2022-08-24T02:57:47.865Z,15.60
2022-08-24T03:00:17.316Z,15.60
2022-08-24T03:02:51.544Z,15.70
2022-08-24T03:05:18.815Z,15.60
2022-08-24T03:07:45.482Z,15.60
2022-08-24T03:10:12.350Z,15.60
2022-08-24T03:12:40.821Z,15.60
2022-08-24T03:15:10.510Z,15.60
2022-08-24T03:17:39.841Z,15.60
2022-08-24T03:20:10.997Z,15.60
2022-08-24T03:22:38.873Z,15.60
2022-08-24T03:25:06.426Z,15.60
2022-08-24T03:27:33.237Z,15.60
2022-08-24T03:30:01.164Z,15.60
2022-08-24T03:32:28.677Z,15.60
2022-08-24T03:34:55.865Z,15.50
2022-08-24T03:37:22.483Z,15.50
2022-08-24T03:39:50.915Z,15.50
2022-08-24T03:42:18.551Z,15.50
2022-08-24T03:44:45.365Z,15.50
2022-08-24T03:47:13.259Z,15.50
2022-08-24T03:49:40.245Z,15.50
2022-08-24T03:52:07.532Z,15.50
2022-08-24T03:54:34.639Z,15.40
2022-08-24T03:57:01.678Z,15.40
2022-08-24T03:59:28.485Z,15.40
2022-08-24T04:01:58.083Z,15.40
2022-08-24T04:04:27.326Z,15.40
2022-08-24T04:06:55.309Z,15.40
2022-08-24T04:09:23.053Z,15.40
2022-08-24T04:11:51.821Z,15.40
2022-08-24T04:14:27.111Z,15.50
2022-08-24T04:17:00.905Z,15.50
2022-08-24T04:19:35.422Z,15.50
2022-08-24T04:22:02.235Z,15.50
2022-08-24T04:24:29.668Z,15.60
2022-08-24T04:26:56.481Z,15.70
2022-08-24T04:29:25.522Z,15.70
2022-08-24T04:31:53.552Z,15.90
2022-08-24T04:34:21.098Z,16.10
2022-08-24T04:36:47.810Z,16.30
2022-08-24T04:39:15.493Z,16.60
2022-08-24T04:42:11.659Z,16.80
2022-08-24T04:44:41.246Z,17.20
2022-08-24T04:47:08.804Z,17.60
2022-08-24T04:49:38.210Z,17.90
2022-08-24T04:52:05.719Z,18.30
2022-08-24T04:54:32.451Z,18.70
2022-08-24T04:57:19.393Z,19.10
2022-08-24T04:59:47.370Z,19.30
2022-08-24T05:02:14.292Z,19.50
2022-08-24T05:04:41.338Z,19.70
2022-08-24T05:07:08.693Z,20.00
2022-08-24T05:09:35.506Z,20.10
2022-08-24T05:12:02.801Z,20.20
2022-08-24T05:14:34.536Z,20.40
2022-08-24T05:17:02.965Z,20.70
2022-08-24T05:19:31.070Z,20.80
2022-08-24T05:21:57.867Z,20.80
2022-08-24T05:24:25.549Z,20.70
2022-08-24T05:26:53.105Z,20.50
2022-08-24T05:29:20.775Z,20.40
2022-08-24T05:31:49.786Z,20.30
2022-08-24T05:34:17.335Z,20.50
2022-08-24T05:36:45.334Z,20.60
2022-08-24T05:39:20.056Z,20.80
2022-08-24T05:41:53.418Z,20.90
2022-08-24T05:44:27.957Z,21.00
2022-08-24T05:47:01.057Z,21.00
2022-08-24T05:49:28.115Z,21.00
2022-08-24T05:51:55.115Z,21.00
2022-08-24T05:54:23.541Z,21.10
2022-08-24T05:57:04.840Z,21.20
2022-08-24T05:59:38.011Z,21.30
2022-08-24T06:02:13.270Z,21.40
2022-08-24T06:04:41.027Z,21.40
2022-08-24T06:07:11.559Z,21.50
2022-08-24T06:09:42.147Z,21.60
2022-08-24T06:12:09.776Z,21.70
2022-08-24T06:14:36.732Z,22.00
2022-08-24T06:17:06.493Z,22.30
2022-08-24T06:19:33.620Z,22.50
2022-08-24T06:22:01.444Z,22.70
2022-08-24T06:24:48.166Z,23.10
2022-08-24T06:27:25.422Z,23.40
2022-08-24T06:30:00.481Z,23.70
2022-08-24T06:32:47.199Z,24.00
2022-08-24T06:35:25.011Z,24.10
2022-08-24T06:37:51.846Z,24.20
2022-08-24T06:40:22.118Z,24.40
2022-08-24T06:42:49.100Z,24.60
2022-08-24T06:45:22.354Z,24.60
2022-08-24T06:47:49.995Z,24.70
2022-08-24T06:50:18.115Z,24.80
2022-08-24T06:52:48.905Z,24.80
2022-08-24T06:55:15.709Z,25.20
2022-08-24T06:57:43.012Z,25.40
2022-08-24T07:00:10.954Z,25.70
2022-08-24T07:02:37.805Z,25.90
2022-08-24T07:05:08.153Z,26.10
2022-08-24T07:08:04.259Z,26.20
2022-08-24T07:10:32.074Z,26.50
2022-08-24T07:13:01.394Z,26.60
2022-08-24T07:15:28.588Z,26.50
2022-08-24T07:18:12.342Z,26.50
2022-08-24T07:20:42.757Z,26.80
2022-08-24T07:23:20.774Z,27.20
2022-08-24T07:25:51.281Z,27.70
2022-08-24T07:28:31.634Z,27.60
2022-08-24T07:31:00.306Z,27.50
2022-08-24T07:33:27.818Z,27.40
2022-08-24T07:35:56.194Z,27.40
2022-08-24T07:38:24.307Z,27.40
2022-08-24T07:43:43.662Z,27.50
2022-08-24T07:46:12.612Z,27.60
2022-08-24T07:48:40.567Z,27.50
2022-08-24T07:51:15.743Z,27.50
2022-08-24T07:53:53.658Z,28.00
2022-08-24T07:56:28.660Z,28.10
2022-08-24T07:58:58.123Z,28.00
2022-08-24T08:01:25.554Z,28.20
2022-08-24T08:03:53.219Z,28.70
2022-08-24T08:06:20.218Z,29.10
2022-08-24T08:08:49.933Z,29.20
2022-08-24T08:11:17.178Z,29.50
2022-08-24T08:16:10.976Z,29.40
2022-08-24T08:18:38.448Z,29.70
2022-08-24T08:21:32.362Z,30.00
2022-08-24T08:24:16.633Z,30.50
2022-08-24T08:26:53.656Z,30.00
2022-08-24T08:29:32.328Z,30.00
2022-08-24T08:32:00.587Z,30.30
2022-08-24T08:34:29.634Z,30.30
2022-08-24T08:36:57.394Z,30.50
2022-08-24T08:39:26.468Z,30.70
2022-08-24T08:42:28.166Z,31.30
2022-08-24T08:45:13.625Z,31.50
2022-08-24T08:47:59.172Z,31.20
2022-08-24T08:51:08.806Z,31.50
2022-08-24T08:54:13.349Z,32.00
2022-08-24T08:57:12.079Z,32.40
2022-08-24T09:00:06.719Z,32.70
2022-08-24T09:03:03.843Z,32.60
2022-08-24T09:05:57.678Z,33.10
2022-08-24T09:08:40.335Z,33.20
2022-08-24T09:11:23.661Z,33.40
2022-08-24T09:13:50.525Z,32.20
2022-08-24T09:16:48.135Z,31.10
2022-08-24T09:19:41.850Z,31.00
2022-08-24T09:22:16.237Z,31.20
2022-08-24T09:24:52.761Z,30.40
2022-08-24T09:27:45.798Z,30.20
2022-08-24T09:30:23.870Z,30.90
2022-08-24T09:33:16.310Z,31.40
2022-08-24T09:36:13.967Z,32.00
2022-08-24T09:39:00.259Z,31.50
2022-08-24T09:41:55.119Z,31.40
2022-08-24T09:44:50.575Z,31.90
2022-08-24T09:47:46.958Z,32.00
2022-08-24T09:50:42.742Z,32.50
2022-08-24T09:53:38.622Z,32.70
2022-08-24T09:56:27.978Z,32.30
2022-08-24T09:58:57.821Z,31.50
2022-08-24T10:01:49.125Z,31.50
2022-08-24T10:04:37.608Z,31.70
2022-08-24T10:07:07.141Z,31.30
2022-08-24T10:09:46.157Z,31.30
2022-08-24T10:12:31.516Z,31.70
2022-08-24T10:15:04.322Z,31.90
2022-08-24T10:17:45.839Z,31.80
2022-08-24T10:20:23.456Z,31.80
2022-08-24T10:23:08.303Z,32.20
2022-08-24T10:25:52.626Z,32.40
2022-08-24T10:28:48.321Z,32.50
2022-08-24T10:31:23.196Z,32.70
2022-08-24T10:34:08.385Z,33.20
2022-08-24T10:36:38.574Z,33.10
2022-08-24T10:39:42.402Z,33.80
2022-08-24T10:42:58.402Z,34.10
2022-08-24T10:45:34.229Z,33.70
2022-08-24T10:48:19.497Z,32.80
2022-08-24T10:51:13.748Z,32.50
2022-08-24T10:53:40.725Z,33.20
2022-08-24T10:56:08.314Z,34.20
2022-08-24T10:58:47.749Z,34.90
2022-08-24T11:01:29.326Z,35.20
2022-08-24T11:04:11.573Z,35.40
2022-08-24T11:06:42.467Z,35.10
2022-08-24T11:09:11.127Z,35.40
2022-08-24T11:11:44.812Z,35.50
2022-08-24T11:14:23.683Z,35.70
2022-08-24T11:16:55.763Z,35.70
2022-08-24T11:19:27.445Z,36.00
2022-08-24T11:21:57.637Z,36.40
2022-08-24T11:24:27.311Z,36.40
2022-08-24T11:27:06.778Z,34.40
2022-08-24T11:29:52.137Z,32.90
2022-08-24T11:32:29.354Z,32.30
2022-08-24T11:35:02.044Z,33.30
2022-08-24T11:37:35.495Z,33.30
2022-08-24T11:40:02.799Z,32.80
2022-08-24T11:42:41.803Z,32.40
2022-08-24T11:45:20.602Z,32.70
2022-08-24T11:48:01.876Z,32.90
2022-08-24T11:51:04.985Z,33.20
2022-08-24T11:53:59.395Z,34.00
2022-08-24T11:56:46.251Z,33.70
2022-08-24T11:59:55.123Z,33.70
2022-08-24T12:02:42.906Z,34.00
2022-08-24T12:05:23.327Z,33.50
2022-08-24T12:08:04.949Z,33.30
2022-08-24T12:11:01.972Z,33.90
2022-08-24T12:13:35.384Z,34.70
2022-08-24T12:16:40.581Z,35.50
2022-08-24T12:19:19.062Z,35.50
2022-08-24T12:21:50.142Z,35.00
2022-08-24T12:24:26.154Z,33.80
2022-08-24T12:27:22.317Z,32.50
2022-08-24T12:30:12.321Z,31.70
2022-08-24T12:32:42.171Z,31.80
2022-08-24T12:35:41.354Z,31.60
2022-08-24T12:38:19.316Z,31.80
2022-08-24T12:40:58.416Z,32.00
2022-08-24T12:43:50.649Z,32.30
2022-08-24T12:46:22.660Z,32.10
2022-08-24T12:49:10.944Z,32.30
2022-08-24T12:52:03.968Z,32.50
2022-08-24T12:54:57.817Z,32.30
2022-08-24T12:57:51.777Z,32.30
2022-08-24T13:00:28.831Z,32.10
2022-08-24T13:03:06.173Z,32.50
2022-08-24T13:05:46.535Z,32.40
2022-08-24T13:08:34.501Z,32.30
2022-08-24T13:11:12.789Z,32.30
2022-08-24T13:13:46.952Z,33.00
2022-08-24T13:16:45.560Z,33.40
2022-08-24T13:19:28.323Z,33.50
2022-08-24T13:22:27.151Z,32.90
2022-08-24T13:25:01.089Z,32.10
2022-08-24T13:27:47.592Z,32.10
2022-08-24T13:30:23.203Z,32.50
2022-08-24T13:32:59.822Z,33.00
2022-08-24T13:35:29.890Z,33.00
2022-08-24T13:38:31.191Z,33.20
2022-08-24T13:41:10.251Z,32.40
2022-08-24T13:44:06.002Z,32.20
2022-08-24T13:47:14.051Z,32.40
2022-08-24T13:49:49.031Z,32.40
2022-08-24T13:52:57.930Z,31.70
2022-08-24T13:55:40.816Z,31.70
2022-08-24T13:58:13.677Z,31.40
2022-08-24T14:00:50.380Z,31.70
2022-08-24T14:03:26.582Z,31.60
2022-08-24T14:06:01.295Z,31.70
2022-08-24T14:08:55.286Z,31.80
2022-08-24T14:12:05.175Z,32.40
2022-08-24T14:14:36.990Z,33.00
2022-08-24T14:17:25.246Z,33.30
2022-08-24T14:20:34.530Z,33.30
2022-08-24T14:23:13.326Z,33.10
2022-08-24T14:25:41.123Z,32.90
2022-08-24T14:28:34.667Z,32.90
2022-08-24T14:31:20.212Z,32.80
2022-08-24T14:33:53.885Z,32.30
2022-08-24T14:36:24.520Z,31.80
2022-08-24T14:38:58.439Z,31.60
2022-08-24T14:41:50.241Z,31.40
2022-08-24T14:45:05.090Z,31.30
2022-08-24T14:47:58.078Z,31.30
2022-08-24T14:50:49.832Z,31.10
2022-08-24T14:53:51.709Z,31.10
2022-08-24T14:56:53.506Z,31.20
2022-08-24T14:59:37.890Z,31.20
2022-08-24T15:02:31.717Z,31.30
2022-08-24T15:05:25.367Z,30.80
2022-08-24T15:08:16.199Z,30.50
2022-08-24T15:10:57.343Z,30.30
2022-08-24T15:13:37.277Z,30.10
2022-08-24T15:16:11.440Z,29.90
2022-08-24T15:19:07.747Z,29.90
2022-08-24T15:21:51.792Z,29.90
2022-08-24T15:24:44.689Z,30.00
2022-08-24T15:27:39.098Z,30.10
2022-08-24T15:30:10.106Z,29.80
2022-08-24T15:32:55.046Z,29.90
2022-08-24T15:35:28.610Z,30.10
2022-08-24T15:37:55.844Z,30.30
2022-08-24T15:40:30.088Z,30.30
2022-08-24T15:43:03.978Z,30.00
2022-08-24T15:45:36.610Z,30.00
2022-08-24T15:48:05.167Z,30.00
2022-08-24T15:50:42.815Z,29.80
2022-08-24T15:53:38.825Z,29.60
2022-08-24T15:56:29.708Z,29.50
2022-08-24T15:59:07.416Z,29.20
2022-08-24T16:01:52.701Z,28.90
2022-08-24T16:04:43.353Z,28.90
2022-08-24T16:07:24.516Z,28.90
2022-08-24T16:10:04.346Z,28.80
2022-08-24T16:12:32.712Z,28.60
2022-08-24T16:15:17.258Z,28.50
2022-08-24T16:17:55.259Z,28.50
2022-08-24T16:20:25.452Z,28.60
2022-08-24T16:23:06.188Z,28.60
2022-08-24T16:25:39.859Z,28.50
2022-08-24T16:28:12.243Z,28.40
2022-08-24T16:30:42.214Z,28.40
2022-08-24T16:33:29.275Z,28.40
2022-08-24T16:36:00.178Z,28.20
2022-08-24T16:38:36.406Z,28.10
2022-08-24T16:41:07.112Z,28.00
2022-08-24T16:43:41.069Z,28.00
2022-08-24T16:46:10.753Z,27.90
2022-08-24T16:48:37.434Z,28.00
2022-08-24T16:51:04.500Z,27.90
2022-08-24T16:53:31.200Z,27.80
2022-08-24T16:55:58.866Z,27.70
2022-08-24T16:58:30.848Z,27.60
2022-08-24T17:00:57.786Z,27.60
2022-08-24T17:03:24.552Z,27.60
2022-08-24T17:05:51.334Z,27.50
2022-08-24T17:08:18.210Z,27.50
2022-08-24T17:10:44.934Z,27.50
2022-08-24T17:13:16.542Z,27.40
2022-08-24T17:15:54.533Z,27.30
2022-08-24T17:18:21.897Z,27.20
2022-08-24T17:20:48.770Z,27.20
2022-08-24T17:23:15.542Z,27.10
2022-08-24T17:25:45.726Z,27.00
2022-08-24T17:28:16.496Z,27.00
2022-08-24T17:30:43.425Z,26.90
2022-08-24T17:33:10.378Z,26.80
2022-08-24T17:35:38.606Z,26.80
2022-08-24T17:38:08.460Z,26.70
2022-08-24T17:40:37.783Z,26.60
2022-08-24T17:43:04.903Z,26.50
2022-08-24T17:45:35.373Z,26.50
2022-08-24T17:48:02.467Z,26.40
2022-08-24T17:50:29.180Z,26.30
2022-08-24T17:52:56.255Z,26.20
2022-08-24T17:55:26.142Z,26.10
2022-08-24T17:57:53.007Z,26.00
2022-08-24T18:00:19.824Z,25.90
2022-08-24T18:02:46.585Z,25.80
2022-08-24T18:05:14.880Z,25.70
2022-08-24T18:07:55.655Z,25.60
2022-08-24T18:10:27.815Z,25.50
2022-08-24T18:12:55.718Z,25.40
2022-08-24T18:15:30.546Z,25.20
2022-08-24T18:18:06.176Z,25.10
2022-08-24T18:20:39.069Z,25.00
2022-08-24T18:23:11.428Z,24.80
2022-08-24T18:25:44.696Z,24.60
2022-08-24T18:28:11.525Z,24.50
2022-08-24T18:30:40.826Z,24.40
2022-08-24T18:33:08.490Z,24.30
2022-08-24T18:35:35.369Z,24.20
2022-08-24T18:38:02.327Z,24.10
2022-08-24T18:40:33.047Z,24.00
2022-08-24T18:43:02.612Z,23.90
2022-08-24T18:45:31.544Z,23.80
2022-08-24T18:47:58.736Z,23.70
2022-08-24T18:50:28.737Z,23.60
2022-08-24T18:52:56.334Z,23.50
2022-08-24T18:55:24.185Z,23.40
2022-08-24T18:57:51.503Z,23.30
2022-08-24T19:00:18.310Z,23.20
2022-08-24T19:02:45.452Z,23.20
2022-08-24T19:05:18.981Z,23.10
2022-08-24T19:07:48.428Z,23.10
2022-08-24T19:10:22.282Z,23.00
2022-08-24T19:12:54.875Z,23.00
2022-08-24T19:15:29.187Z,22.90
2022-08-24T19:18:08.026Z,22.80
2022-08-24T19:20:35.529Z,22.80
2022-08-24T19:23:08.443Z,22.70
2022-08-24T19:25:37.089Z,22.60
2022-08-24T19:28:04.870Z,22.60
2022-08-24T19:30:31.567Z,22.50
2022-08-24T19:32:59.271Z,22.50
2022-08-24T19:35:26.757Z,22.50
2022-08-24T19:37:53.513Z,22.40
2022-08-24T19:40:23.261Z,22.40
2022-08-24T19:42:53.494Z,22.30
2022-08-24T19:45:43.131Z,22.30
2022-08-24T19:48:11.093Z,22.20
2022-08-24T19:50:38.209Z,22.20
2022-08-24T19:53:06.168Z,22.20
2022-08-24T19:55:33.172Z,22.10
2022-08-24T19:58:15.635Z,22.10
2022-08-24T20:00:49.197Z,22.00
2022-08-24T20:03:18.655Z,21.90
2022-08-24T20:05:45.767Z,21.80
2022-08-24T20:08:12.834Z,21.80
2022-08-24T20:10:39.652Z,21.60
2022-08-24T20:13:07.184Z,21.60
2022-08-24T20:15:34.291Z,21.50
2022-08-24T20:18:01.321Z,21.40
2022-08-24T20:20:30.069Z,21.20
2022-08-24T20:22:57.332Z,21.10
2022-08-24T20:25:24.089Z,21.00
2022-08-24T20:28:12.176Z,21.00
2022-08-24T20:30:38.009Z,20.90
2022-08-24T20:33:06.644Z,20.80
2022-08-24T20:35:33.507Z,20.70
2022-08-24T20:38:00.324Z,20.70
2022-08-24T20:40:27.562Z,20.50
2022-08-24T20:42:54.262Z,20.30
2022-08-24T20:45:20.998Z,20.20
2022-08-24T20:47:50.620Z,20.10
2022-08-24T20:50:20.799Z,20.00
2022-08-24T20:52:51.757Z,19.90
2022-08-24T20:55:19.332Z,19.70
2022-08-24T20:57:52.463Z,19.60
2022-08-24T21:00:24.647Z,19.50
2022-08-24T21:02:52.306Z,19.50
2022-08-24T21:05:19.035Z,19.50
2022-08-24T21:07:49.578Z,19.40
2022-08-24T21:10:18.582Z,19.30
2022-08-24T21:12:45.573Z,19.20
2022-08-24T21:15:13.860Z,19.10
2022-08-24T21:17:44.918Z,18.90
2022-08-24T21:20:13.603Z,18.80
2022-08-24T21:22:40.449Z,18.80
2022-08-24T21:25:09.914Z,18.80
2022-08-24T21:27:39.618Z,18.80
2022-08-24T21:30:09.192Z,18.80
2022-08-24T21:32:54.439Z,18.80
2022-08-24T21:35:22.894Z,18.90
2022-08-24T21:37:53.125Z,18.90
2022-08-24T21:40:21.820Z,18.90
2022-08-24T21:42:48.837Z,18.90
2022-08-24T21:45:16.462Z,18.90
2022-08-24T21:47:43.574Z,18.90
2022-08-24T21:50:11.570Z,18.80
2022-08-24T21:52:38.349Z,18.70
2022-08-24T21:55:10.548Z,18.70
2022-08-24T21:57:39.899Z,18.70
2022-08-24T22:00:11.656Z,18.60
2022-08-24T22:02:38.918Z,18.50
2022-08-24T22:05:06.474Z,18.40
2022-08-24T22:07:33.372Z,18.40
2022-08-24T22:10:00.181Z,18.50
2022-08-24T22:12:26.958Z,18.50
2022-08-24T22:14:53.636Z,18.50
2022-08-24T22:17:20.269Z,18.60
2022-08-24T22:19:46.945Z,18.70
2022-08-24T22:22:13.640Z,18.80
2022-08-24T22:24:40.378Z,18.90
2022-08-24T22:27:07.067Z,19.00
2022-08-24T22:29:34.302Z,19.00
2022-08-24T22:32:01.235Z,19.10
2022-08-24T22:34:28.038Z,19.10
2022-08-24T22:36:56.945Z,19.20
2022-08-24T22:39:23.634Z,19.30
2022-08-24T22:41:50.304Z,19.20
2022-08-24T22:44:19.895Z,19.30
2022-08-24T22:46:50.205Z,19.30
2022-08-24T22:49:18.247Z,19.30
2022-08-24T22:51:45.233Z,19.30
2022-08-24T22:54:12.422Z,19.30
2022-08-24T22:56:42.726Z,19.30
2022-08-24T22:59:15.009Z,19.20
2022-08-24T23:01:43.364Z,19.30
2022-08-24T23:04:14.466Z,19.30
2022-08-24T23:06:41.758Z,19.30
2022-08-24T23:09:08.754Z,19.30
2022-08-24T23:11:35.750Z,19.30
2022-08-24T23:14:03.659Z,19.30
2022-08-24T23:16:32.341Z,19.20
2022-08-24T23:19:18.335Z,19.20
2022-08-24T23:21:45.618Z,19.30
2022-08-24T23:24:12.886Z,19.30
2022-08-24T23:26:40.402Z,19.30
2022-08-24T23:29:10.450Z,19.20
2022-08-24T23:31:37.331Z,19.20
2022-08-24T23:34:05.130Z,19.30
2022-08-24T23:36:32.467Z,19.30
2022-08-24T23:38:59.668Z,19.20
2022-08-24T23:41:31.022Z,19.20
2022-08-24T23:44:01.054Z,19.20
2022-08-24T23:46:28.272Z,19.10
2022-08-24T23:48:56.722Z,19.10
2022-08-24T23:51:25.451Z,19.00
2022-08-24T23:53:52.608Z,19.00
2022-08-24T23:56:25.247Z,18.90
2022-08-24T23:58:53.126Z,18.90
